createdAt,value
2023-03-15T00:01:24.254Z,6.69
2023-03-15T00:03:52.488Z,6.68
2023-03-15T00:06:22.272Z,6.67
2023-03-15T00:08:52.014Z,6.61
2023-03-15T00:11:20.655Z,6.53
2023-03-15T00:13:48.861Z,6.64
2023-03-15T00:16:18.227Z,6.60
2023-03-15T00:18:47.031Z,6.62
2023-03-15T00:21:15.916Z,6.72
2023-03-15T00:23:45.368Z,6.72
2023-03-15T00:26:13.901Z,6.73
2023-03-15T00:28:42.441Z,6.71
2023-03-15T00:31:16.777Z,6.75
2023-03-15T00:33:46.686Z,6.74
2023-03-15T00:36:17.292Z,6.69
2023-03-15T00:38:46.871Z,6.67
2023-03-15T00:41:18.177Z,6.74
2023-03-15T00:43:47.106Z,6.68
2023-03-15T00:46:15.974Z,6.70
2023-03-15T00:48:44.458Z,6.61
2023-03-15T00:51:14.746Z,6.57
2023-03-15T00:53:46.661Z,6.59
2023-03-15T00:56:18.011Z,6.55
2023-03-15T00:58:46.488Z,6.54
2023-03-15T01:01:17.360Z,6.52
2023-03-15T01:03:46.169Z,6.43
2023-03-15T01:06:16.820Z,6.54
2023-03-15T01:08:47.101Z,6.40
2023-03-15T01:11:17.472Z,6.55
2023-03-15T01:13:45.924Z,6.49
2023-03-15T01:16:15.668Z,6.52
2023-03-15T01:18:45.256Z,6.42
2023-03-15T01:21:16.535Z,6.46
2023-03-15T01:23:50.535Z,6.55
2023-03-15T01:26:19.516Z,6.52
2023-03-15T01:28:48.438Z,6.49
2023-03-15T01:31:20.030Z,6.34
2023-03-15T01:33:48.583Z,6.32
2023-03-15T01:36:16.904Z,6.44
2023-03-15T01:38:45.551Z,6.41
2023-03-15T01:41:18.338Z,6.26
2023-03-15T01:43:48.001Z,6.35
2023-03-15T01:46:24.847Z,6.37
2023-03-15T01:49:03.433Z,6.42
2023-03-15T01:51:41.665Z,6.36
2023-03-15T01:54:16.620Z,6.35
2023-03-15T01:56:51.587Z,6.28
2023-03-15T01:59:27.985Z,6.29
2023-03-15T02:01:57.016Z,6.29
2023-03-15T02:04:31.391Z,6.40
2023-03-15T02:07:03.225Z,6.42
2023-03-15T02:09:42.761Z,6.26
2023-03-15T02:12:12.841Z,6.37
2023-03-15T02:14:43.980Z,6.32
2023-03-15T02:17:15.429Z,6.31
2023-03-15T02:19:54.242Z,6.26
2023-03-15T02:22:35.039Z,6.20
2023-03-15T02:25:11.715Z,6.16
2023-03-15T02:27:41.784Z,6.15
2023-03-15T02:30:12.823Z,6.11
2023-03-15T02:32:43.304Z,6.05
2023-03-15T02:35:12.005Z,6.05
2023-03-15T02:37:45.826Z,6.12
2023-03-15T02:40:21.304Z,6.11
2023-03-15T02:42:55.575Z,6.05
2023-03-15T02:45:28.142Z,6.12
2023-03-15T02:47:58.024Z,6.14
2023-03-15T02:50:26.504Z,6.07
2023-03-15T02:52:54.707Z,6.16
2023-03-15T02:55:23.905Z,6.17
2023-03-15T02:57:53.241Z,6.11
2023-03-15T03:00:22.309Z,6.17
2023-03-15T03:02:50.329Z,6.09
2023-03-15T03:05:18.968Z,6.16
2023-03-15T03:07:49.149Z,6.15
2023-03-15T03:10:20.636Z,6.14
2023-03-15T03:12:57.398Z,6.27
2023-03-15T03:15:33.468Z,6.18
2023-03-15T03:18:01.470Z,6.20
2023-03-15T03:20:30.206Z,6.08
2023-03-15T03:22:58.293Z,6.01
2023-03-15T03:25:27.262Z,5.96
2023-03-15T03:27:57.223Z,6.00
2023-03-15T03:30:26.875Z,6.05
2023-03-15T03:32:54.931Z,6.04
2023-03-15T03:35:23.167Z,5.97
2023-03-15T03:37:53.529Z,5.95
2023-03-15T03:40:25.824Z,5.91
2023-03-15T03:42:53.941Z,5.88
2023-03-15T03:45:23.369Z,5.88
2023-03-15T03:47:54.765Z,5.91
2023-03-15T03:50:22.962Z,5.86
2023-03-15T03:52:51.944Z,5.83
2023-03-15T03:55:25.412Z,5.88
2023-03-15T03:57:54.775Z,5.74
2023-03-15T04:00:43.075Z,5.83
2023-03-15T04:03:12.032Z,5.76
2023-03-15T04:05:44.456Z,5.76
2023-03-15T04:08:17.756Z,5.79
2023-03-15T04:10:45.846Z,5.76
2023-03-15T04:13:14.988Z,5.73
2023-03-15T04:15:44.443Z,5.66
2023-03-15T04:18:12.639Z,5.58
2023-03-15T04:20:46.683Z,5.56
2023-03-15T04:23:16.063Z,5.55
2023-03-15T04:26:05.614Z,5.59
2023-03-15T04:29:04.172Z,5.48
2023-03-15T04:32:01.643Z,5.55
2023-03-15T04:34:52.492Z,5.50
2023-03-15T04:37:32.080Z,5.47
2023-03-15T04:40:23.887Z,5.47
2023-03-15T04:42:58.236Z,5.45
2023-03-15T04:45:28.271Z,5.49
2023-03-15T04:48:20.641Z,5.47
2023-03-15T04:51:20.702Z,5.46
2023-03-15T04:54:03.487Z,5.57
2023-03-15T04:56:54.785Z,5.55
2023-03-15T04:59:45.351Z,5.61
2023-03-15T05:02:33.840Z,5.52
2023-03-15T05:05:18.480Z,5.54
2023-03-15T05:08:09.392Z,5.61
2023-03-15T05:11:12.916Z,5.54
2023-03-15T05:14:09.078Z,5.54
2023-03-15T05:17:05.146Z,5.50
2023-03-15T05:19:46.144Z,5.53
2023-03-15T05:22:32.910Z,5.58
2023-03-15T05:25:20.035Z,5.66
2023-03-15T05:28:18.393Z,5.64
2023-03-15T05:31:04.959Z,5.50
2023-03-15T05:33:54.419Z,5.54
2023-03-15T05:36:37.211Z,5.58
2023-03-15T05:39:25.096Z,5.53
2023-03-15T05:42:13.404Z,5.53
2023-03-15T05:44:58.241Z,5.63
2023-03-15T05:47:44.132Z,5.63
2023-03-15T05:50:33.438Z,5.66
2023-03-15T05:53:28.428Z,5.56
2023-03-15T05:56:15.323Z,5.64
2023-03-15T05:59:13.141Z,5.58
2023-03-15T06:01:53.376Z,5.65
2023-03-15T06:04:27.251Z,5.62
2023-03-15T06:06:57.253Z,5.66
2023-03-15T06:09:25.933Z,5.68
2023-03-15T06:11:55.625Z,5.61
2023-03-15T06:14:23.798Z,5.63
2023-03-15T06:16:54.356Z,5.55
2023-03-15T06:19:23.464Z,5.59
2023-03-15T06:21:55.697Z,5.67
2023-03-15T06:24:30.188Z,5.67
2023-03-15T06:26:59.647Z,5.67
2023-03-15T06:29:28.474Z,5.70
2023-03-15T06:31:58.516Z,5.80
2023-03-15T06:34:28.505Z,5.75
2023-03-15T06:36:56.897Z,5.64
2023-03-15T06:39:25.117Z,5.70
2023-03-15T06:41:57.322Z,5.77
2023-03-15T06:44:28.175Z,5.88
2023-03-15T06:47:01.442Z,5.84
2023-03-15T06:49:30.840Z,5.99
2023-03-15T06:51:59.553Z,6.01
2023-03-15T06:54:27.765Z,6.08
2023-03-15T06:56:55.965Z,6.06
2023-03-15T06:59:24.609Z,6.11
2023-03-15T07:01:54.087Z,6.15
2023-03-15T07:04:22.574Z,6.18
2023-03-15T07:06:50.641Z,6.23
2023-03-15T07:09:18.793Z,6.18
2023-03-15T07:11:47.476Z,6.26
2023-03-15T07:14:15.530Z,6.38
2023-03-15T07:16:43.606Z,6.31
2023-03-15T07:19:13.415Z,6.37
2023-03-15T07:21:41.520Z,6.44
2023-03-15T07:24:09.681Z,6.43
2023-03-15T07:26:37.794Z,6.67
2023-03-15T07:29:05.906Z,6.59
2023-03-15T07:31:34.043Z,6.67
2023-03-15T07:34:02.363Z,6.72
2023-03-15T07:36:32.389Z,6.87
2023-03-15T07:39:00.473Z,6.77
2023-03-15T07:41:28.519Z,6.88
2023-03-15T07:44:07.788Z,6.98
2023-03-15T07:46:36.048Z,7.08
2023-03-15T07:49:04.285Z,7.11
2023-03-15T07:51:33.661Z,7.16
2023-03-15T07:54:01.788Z,7.33
2023-03-15T07:56:30.108Z,7.44
2023-03-15T07:58:58.216Z,7.60
2023-03-15T08:01:26.476Z,7.60
2023-03-15T08:03:54.741Z,7.75
2023-03-15T08:06:22.870Z,7.84
2023-03-15T08:08:52.393Z,7.82
2023-03-15T08:11:20.493Z,7.94
2023-03-15T08:13:48.630Z,7.91
2023-03-15T08:16:16.776Z,7.97
2023-03-15T08:18:44.888Z,8.23
2023-03-15T08:21:12.890Z,8.31
2023-03-15T08:23:40.921Z,8.44
2023-03-15T08:26:10.624Z,8.50
2023-03-15T08:28:38.750Z,8.40
2023-03-15T08:31:08.817Z,8.50
2023-03-15T08:33:37.033Z,8.48
2023-03-15T08:36:05.570Z,8.63
2023-03-15T08:38:33.929Z,8.70
2023-03-15T08:41:03.546Z,8.75
2023-03-15T08:43:33.152Z,8.84
2023-03-15T08:46:02.053Z,8.78
2023-03-15T08:48:31.513Z,8.73
2023-03-15T08:51:04.337Z,8.61
2023-03-15T08:53:32.550Z,8.73
2023-03-15T08:56:01.209Z,8.72
2023-03-15T08:58:29.410Z,8.81
2023-03-15T09:00:59.038Z,8.92
2023-03-15T09:03:27.033Z,8.88
2023-03-15T09:05:58.755Z,8.87
2023-03-15T09:08:27.483Z,8.86
2023-03-15T09:10:56.833Z,8.88
2023-03-15T09:13:25.925Z,8.86
2023-03-15T09:15:55.371Z,8.85
2023-03-15T09:18:25.871Z,8.85
2023-03-15T09:20:54.175Z,8.81
2023-03-15T09:23:22.446Z,8.86
2023-03-15T09:25:50.567Z,8.86
2023-03-15T09:28:18.637Z,8.85
2023-03-15T09:30:46.796Z,8.92
2023-03-15T09:33:14.990Z,8.85
2023-03-15T09:35:44.425Z,9.00
2023-03-15T09:38:12.801Z,9.02
2023-03-15T09:40:45.054Z,9.18
2023-03-15T09:43:39.298Z,9.32
2023-03-15T09:46:24.137Z,9.48
2023-03-15T09:48:56.553Z,9.57
2023-03-15T09:51:36.491Z,9.71
2023-03-15T09:54:09.396Z,9.94
2023-03-15T09:56:45.514Z,10.13
2023-03-15T09:59:16.382Z,10.26
2023-03-15T10:01:45.353Z,10.34
2023-03-15T10:04:24.103Z,10.45
2023-03-15T10:06:57.023Z,10.42
2023-03-15T10:09:29.680Z,10.36
2023-03-15T10:12:06.001Z,10.41
2023-03-15T10:14:56.798Z,10.44
2023-03-15T10:17:36.470Z,10.54
2023-03-15T10:20:12.345Z,10.56
2023-03-15T10:22:53.780Z,10.64
2023-03-15T10:25:26.337Z,10.63
2023-03-15T10:27:58.438Z,10.68
2023-03-15T10:30:30.060Z,10.75
2023-03-15T10:33:03.261Z,10.83
2023-03-15T10:35:32.115Z,10.76
2023-03-15T10:38:02.912Z,10.72
2023-03-15T10:40:44.138Z,10.76
2023-03-15T10:43:20.728Z,10.61
2023-03-15T10:46:01.151Z,10.58
2023-03-15T10:48:31.684Z,10.57
2023-03-15T10:51:06.991Z,10.42
2023-03-15T10:53:37.878Z,10.41
2023-03-15T10:56:14.684Z,10.39
2023-03-15T10:58:55.136Z,10.41
2023-03-15T11:01:35.844Z,10.35
2023-03-15T11:04:16.446Z,10.40
2023-03-15T11:06:48.378Z,10.42
2023-03-15T11:09:22.090Z,10.47
2023-03-15T11:11:54.830Z,10.46
2023-03-15T11:14:23.228Z,10.37
2023-03-15T11:16:55.449Z,10.38
2023-03-15T11:19:28.137Z,10.25
2023-03-15T11:21:57.141Z,10.19
2023-03-15T11:24:29.319Z,10.21
2023-03-15T11:27:01.692Z,10.18
2023-03-15T11:29:32.568Z,10.23
2023-03-15T11:32:03.489Z,10.26
2023-03-15T11:34:45.520Z,10.15
2023-03-15T11:37:20.152Z,10.10
2023-03-15T11:40:08.853Z,10.07
2023-03-15T11:42:45.415Z,10.13
2023-03-15T11:45:22.554Z,10.08
2023-03-15T11:47:55.876Z,10.11
2023-03-15T11:50:24.219Z,10.02
2023-03-15T11:52:53.900Z,10.07
2023-03-15T11:55:27.461Z,10.10
2023-03-15T11:57:57.914Z,10.12
2023-03-15T12:00:52.261Z,10.07
2023-03-15T12:03:44.305Z,10.16
2023-03-15T12:06:36.881Z,10.21
2023-03-15T12:09:52.229Z,10.28
2023-03-15T12:12:45.778Z,10.29
2023-03-15T12:15:53.380Z,10.39
2023-03-15T12:18:29.012Z,10.47
2023-03-15T12:21:14.051Z,10.38
2023-03-15T12:23:59.553Z,10.34
2023-03-15T12:26:43.222Z,10.34
2023-03-15T12:29:22.222Z,10.38
2023-03-15T12:31:59.636Z,10.34
2023-03-15T12:34:37.165Z,10.23
2023-03-15T12:37:09.792Z,10.23
2023-03-15T12:39:42.988Z,10.29
2023-03-15T12:42:54.161Z,10.27
2023-03-15T12:45:45.417Z,10.25
2023-03-15T12:48:24.580Z,10.23
2023-03-15T12:51:14.712Z,10.06
2023-03-15T12:53:48.938Z,10.06
2023-03-15T12:56:51.324Z,10.01
2023-03-15T12:59:32.287Z,9.95
2023-03-15T13:02:03.406Z,9.88
2023-03-15T13:04:32.426Z,9.90
2023-03-15T13:07:22.855Z,9.94
2023-03-15T13:10:23.896Z,10.01
2023-03-15T13:13:01.313Z,9.99
2023-03-15T13:15:39.014Z,10.04
2023-03-15T13:18:17.849Z,10.04
2023-03-15T13:21:06.204Z,9.98
2023-03-15T13:23:35.372Z,9.80
2023-03-15T13:26:25.536Z,9.80
2023-03-15T13:29:01.314Z,9.77
2023-03-15T13:31:32.109Z,9.68
2023-03-15T13:34:13.173Z,9.47
2023-03-15T13:36:46.227Z,9.30
2023-03-15T13:39:26.163Z,9.19
2023-03-15T13:41:59.508Z,9.09
2023-03-15T13:44:29.055Z,8.93
2023-03-15T13:47:00.087Z,8.89
2023-03-15T13:49:33.056Z,8.86
2023-03-15T13:52:11.914Z,8.82
2023-03-15T13:54:41.647Z,8.76
2023-03-15T13:57:14.143Z,8.78
2023-03-15T13:59:46.831Z,8.86
2023-03-15T14:02:20.893Z,8.87
2023-03-15T14:04:54.385Z,8.93
2023-03-15T14:07:30.688Z,8.94
2023-03-15T14:10:26.511Z,8.95
2023-03-15T14:12:55.813Z,9.05
2023-03-15T14:15:28.827Z,9.13
2023-03-15T14:18:14.860Z,9.31
2023-03-15T14:20:47.100Z,9.32
2023-03-15T14:23:18.839Z,9.42
2023-03-15T14:25:54.413Z,9.50
2023-03-15T14:28:24.436Z,9.52
2023-03-15T14:30:55.703Z,9.60
2023-03-15T14:33:34.095Z,9.60
2023-03-15T14:36:04.700Z,9.54
2023-03-15T14:38:36.209Z,9.54
2023-03-15T14:41:25.234Z,9.55
2023-03-15T14:44:18.150Z,9.49
2023-03-15T14:46:46.237Z,9.42
2023-03-15T14:49:24.014Z,9.43
2023-03-15T14:51:58.627Z,9.34
2023-03-15T14:54:27.058Z,9.27
2023-03-15T14:56:55.123Z,9.16
2023-03-15T14:59:23.813Z,9.10
2023-03-15T15:01:55.681Z,8.99
2023-03-15T15:04:33.622Z,8.96
2023-03-15T15:07:03.234Z,8.81
2023-03-15T15:09:32.018Z,8.67
2023-03-15T15:12:00.261Z,8.51
2023-03-15T15:14:28.337Z,8.45
2023-03-15T15:16:56.456Z,8.44
2023-03-15T15:19:26.035Z,8.38
2023-03-15T15:21:54.222Z,8.40
2023-03-15T15:24:26.624Z,8.27
2023-03-15T15:26:55.045Z,8.28
2023-03-15T15:29:24.145Z,8.26
2023-03-15T15:31:52.307Z,8.33
2023-03-15T15:34:20.684Z,8.31
2023-03-15T15:36:50.057Z,8.30
2023-03-15T15:39:23.426Z,8.35
2023-03-15T15:41:51.736Z,8.37
2023-03-15T15:44:22.498Z,8.28
2023-03-15T15:46:50.581Z,8.17
2023-03-15T15:49:19.408Z,8.16
2023-03-15T15:51:50.438Z,8.11
2023-03-15T15:54:22.781Z,8.16
2023-03-15T15:56:54.989Z,8.22
2023-03-15T15:59:25.437Z,8.23
2023-03-15T16:02:01.524Z,8.21
2023-03-15T16:04:32.588Z,8.17
2023-03-15T16:07:04.437Z,8.16
2023-03-15T16:09:35.942Z,8.06
2023-03-15T16:12:12.106Z,8.13
2023-03-15T16:14:40.351Z,8.01
2023-03-15T16:17:12.978Z,8.13
2023-03-15T16:19:41.339Z,8.27
2023-03-15T16:22:11.091Z,8.19
2023-03-15T16:24:43.968Z,8.28
2023-03-15T16:27:25.899Z,8.35
2023-03-15T16:29:56.195Z,8.31
2023-03-15T16:32:37.235Z,8.33
2023-03-15T16:35:15.312Z,8.30
2023-03-15T16:37:46.596Z,8.32
2023-03-15T16:40:21.693Z,8.30
2023-03-15T16:42:50.708Z,8.28
2023-03-15T16:45:19.188Z,8.32
2023-03-15T16:47:48.473Z,8.23
2023-03-15T16:50:17.407Z,8.30
2023-03-15T16:52:50.565Z,8.29
2023-03-15T16:55:24.510Z,8.27
2023-03-15T16:57:53.432Z,8.20
2023-03-15T17:00:22.874Z,8.27
2023-03-15T17:02:53.026Z,8.22
2023-03-15T17:05:24.383Z,8.14
2023-03-15T17:07:55.636Z,8.16
2023-03-15T17:10:27.366Z,8.06
2023-03-15T17:12:56.760Z,8.11
2023-03-15T17:15:28.329Z,8.15
2023-03-15T17:17:57.546Z,8.20
2023-03-15T17:20:29.318Z,8.19
2023-03-15T17:23:04.067Z,8.15
2023-03-15T17:25:33.587Z,8.04
2023-03-15T17:28:02.537Z,8.09
2023-03-15T17:30:33.557Z,8.04
2023-03-15T17:33:02.288Z,7.94
2023-03-15T17:35:34.895Z,7.93
2023-03-15T17:38:07.437Z,7.92
2023-03-15T17:40:37.289Z,7.88
2023-03-15T17:43:06.543Z,7.88
2023-03-15T17:45:35.867Z,7.86
2023-03-15T17:48:04.672Z,7.79
2023-03-15T17:50:34.890Z,7.82
2023-03-15T17:53:07.207Z,7.85
2023-03-15T17:55:39.598Z,7.79
2023-03-15T17:58:17.151Z,7.76
2023-03-15T18:00:45.381Z,7.69
2023-03-15T18:03:15.485Z,7.79
2023-03-15T18:05:48.722Z,7.59
2023-03-15T18:08:21.520Z,7.61
2023-03-15T18:10:50.985Z,7.57
2023-03-15T18:13:23.182Z,7.59
2023-03-15T18:15:52.241Z,7.56
2023-03-15T18:18:21.441Z,7.49
2023-03-15T18:20:50.316Z,7.48
2023-03-15T18:23:19.722Z,7.53
2023-03-15T18:25:48.194Z,7.42
2023-03-15T18:28:16.345Z,7.36
2023-03-15T18:30:45.303Z,7.36
2023-03-15T18:33:15.499Z,7.35
2023-03-15T18:35:44.034Z,7.32
2023-03-15T18:38:12.063Z,7.33
2023-03-15T18:40:41.520Z,7.28
2023-03-15T18:43:14.283Z,7.29
2023-03-15T18:45:42.551Z,7.24
2023-03-15T18:48:10.692Z,7.11
2023-03-15T18:50:38.854Z,7.07
2023-03-15T18:53:06.939Z,7.00
2023-03-15T18:55:35.648Z,6.93
2023-03-15T18:58:09.573Z,7.02
2023-03-15T19:00:37.795Z,7.03
2023-03-15T19:03:07.393Z,7.05
2023-03-15T19:05:38.197Z,7.07
2023-03-15T19:08:07.543Z,7.07
2023-03-15T19:10:35.873Z,6.92
2023-03-15T19:13:05.449Z,6.93
2023-03-15T19:15:34.539Z,6.97
2023-03-15T19:18:03.266Z,7.02
2023-03-15T19:20:31.655Z,6.98
2023-03-15T19:22:59.677Z,7.01
2023-03-15T19:25:27.728Z,7.04
2023-03-15T19:27:57.291Z,7.00
2023-03-15T19:30:27.558Z,6.97
2023-03-15T19:32:56.903Z,6.94
2023-03-15T19:35:26.617Z,6.89
2023-03-15T19:37:56.272Z,6.83
2023-03-15T19:40:24.862Z,6.77
2023-03-15T19:42:53.387Z,6.87
2023-03-15T19:45:21.494Z,6.67
2023-03-15T19:47:50.897Z,6.64
2023-03-15T19:50:19.385Z,6.62
2023-03-15T19:52:47.636Z,6.60
2023-03-15T19:55:17.246Z,6.53
2023-03-15T19:57:45.858Z,6.53
2023-03-15T20:00:16.661Z,6.57
2023-03-15T20:02:46.605Z,6.55
2023-03-15T20:05:19.320Z,6.54
2023-03-15T20:07:50.585Z,6.48
2023-03-15T20:10:20.148Z,6.44
2023-03-15T20:12:48.644Z,6.39
2023-03-15T20:15:20.595Z,6.30
2023-03-15T20:17:48.743Z,6.20
2023-03-15T20:20:19.497Z,6.27
2023-03-15T20:22:47.965Z,6.24
2023-03-15T20:25:18.194Z,6.26
2023-03-15T20:27:46.601Z,6.31
2023-03-15T20:30:17.133Z,6.27
2023-03-15T20:32:45.454Z,6.26
2023-03-15T20:35:13.916Z,6.25
2023-03-15T20:37:43.288Z,6.27
2023-03-15T20:40:14.515Z,6.23
2023-03-15T20:42:43.530Z,6.16
2023-03-15T20:45:13.808Z,6.17
2023-03-15T20:47:42.519Z,6.12
2023-03-15T20:50:13.230Z,6.11
2023-03-15T20:52:43.630Z,6.13
2023-03-15T20:55:15.156Z,6.16
2023-03-15T20:57:43.863Z,6.18
2023-03-15T21:00:18.021Z,6.12
2023-03-15T21:02:46.985Z,6.06
2023-03-15T21:05:16.099Z,6.13
2023-03-15T21:07:46.141Z,6.07
2023-03-15T21:10:15.208Z,6.09
2023-03-15T21:12:44.162Z,6.10
2023-03-15T21:15:17.225Z,6.09
2023-03-15T21:17:48.727Z,6.03
2023-03-15T21:20:17.323Z,6.07
2023-03-15T21:22:46.888Z,6.02
2023-03-15T21:25:15.224Z,5.93
2023-03-15T21:27:43.523Z,5.81
2023-03-15T21:30:14.496Z,5.89
2023-03-15T21:32:43.620Z,5.93
2023-03-15T21:35:12.692Z,5.89
2023-03-15T21:37:41.087Z,5.86
2023-03-15T21:40:13.058Z,5.88
2023-03-15T21:42:42.584Z,5.89
2023-03-15T21:45:12.271Z,5.84
2023-03-15T21:47:40.386Z,5.85
2023-03-15T21:50:11.659Z,5.86
2023-03-15T21:52:40.004Z,5.86
2023-03-15T21:55:15.373Z,5.78
2023-03-15T21:57:44.674Z,5.76
2023-03-15T22:00:17.012Z,5.84
2023-03-15T22:02:45.451Z,5.80
2023-03-15T22:05:14.159Z,5.84
2023-03-15T22:07:43.335Z,5.79
2023-03-15T22:10:14.281Z,5.81
2023-03-15T22:12:43.139Z,5.78
2023-03-15T22:15:12.595Z,5.76
2023-03-15T22:17:40.654Z,5.78
2023-03-15T22:20:13.823Z,5.75
2023-03-15T22:22:41.873Z,5.68
2023-03-15T22:25:11.964Z,5.70
2023-03-15T22:27:40.137Z,5.67
2023-03-15T22:30:09.861Z,5.71
2023-03-15T22:32:38.013Z,5.68
2023-03-15T22:35:07.355Z,5.64
2023-03-15T22:37:35.482Z,5.63
2023-03-15T22:40:04.541Z,5.65
2023-03-15T22:42:33.968Z,5.66
2023-03-15T22:45:02.092Z,5.60
2023-03-15T22:47:30.320Z,5.57
2023-03-15T22:49:59.661Z,5.53
2023-03-15T22:52:28.124Z,5.53
2023-03-15T22:54:56.272Z,5.55
2023-03-15T22:57:24.439Z,5.55
2023-03-15T22:59:53.724Z,5.49
2023-03-15T23:02:22.202Z,5.42
2023-03-15T23:04:50.349Z,5.54
2023-03-15T23:07:18.456Z,5.47
2023-03-15T23:09:46.798Z,5.41
2023-03-15T23:12:18.164Z,5.35
2023-03-15T23:14:49.610Z,5.32
2023-03-15T23:17:19.224Z,5.31
2023-03-15T23:19:47.235Z,5.27
2023-03-15T23:22:40.446Z,5.38
2023-03-15T23:25:09.809Z,5.24
2023-03-15T23:27:39.820Z,5.22
2023-03-15T23:30:10.542Z,5.25
2023-03-15T23:32:40.538Z,5.24
2023-03-15T23:35:12.463Z,5.20
2023-03-15T23:37:40.976Z,5.23
2023-03-15T23:40:14.051Z,5.29
2023-03-15T23:42:42.734Z,5.27
2023-03-15T23:45:12.212Z,5.37
2023-03-15T23:47:42.224Z,5.26
2023-03-15T23:50:13.881Z,5.22
2023-03-15T23:52:42.236Z,5.21
2023-03-15T23:55:11.529Z,5.20
2023-03-15T23:57:40.159Z,5.16
